createdAt,value
2018-12-22T00:02:21.106Z,21.36
2018-12-22T00:04:48.773Z,21.38
2018-12-22T00:07:16.362Z,21.37
2018-12-22T00:09:43.977Z,21.37
2018-12-22T00:12:11.549Z,21.36
2018-12-22T00:14:39.310Z,21.39
2018-12-22T00:17:06.972Z,21.37
2018-12-22T00:19:34.531Z,21.36
2018-12-22T00:22:02.252Z,21.38
2018-12-22T00:24:29.842Z,21.37
2018-12-22T00:26:57.611Z,21.38
2018-12-22T00:29:25.181Z,21.38
2018-12-22T00:31:52.732Z,21.38
2018-12-22T00:34:21.458Z,21.37
2018-12-22T00:36:48.982Z,21.35
2018-12-22T00:39:16.544Z,21.39
2018-12-22T00:41:44.136Z,21.38
2018-12-22T00:44:11.838Z,21.34
2018-12-22T00:46:39.534Z,21.36
2018-12-22T00:49:07.088Z,21.36
2018-12-22T00:51:34.638Z,21.36
2018-12-22T00:54:02.310Z,21.35
2018-12-22T00:56:29.890Z,21.34
2018-12-22T00:58:57.502Z,21.32
2018-12-22T01:01:25.212Z,21.32
2018-12-22T01:03:53.059Z,21.33
2018-12-22T01:06:20.460Z,21.33
2018-12-22T01:08:48.065Z,21.30
2018-12-22T01:11:15.739Z,21.31
2018-12-22T01:13:43.291Z,21.31
2018-12-22T01:16:10.849Z,21.32
2018-12-22T01:18:38.533Z,21.31
2018-12-22T01:21:06.381Z,21.31
2018-12-22T01:23:34.045Z,21.30
2018-12-22T01:26:01.751Z,21.29
2018-12-22T01:28:29.367Z,21.30
2018-12-22T01:30:57.135Z,21.30
2018-12-22T01:33:24.693Z,21.30
2018-12-22T01:35:52.255Z,21.30
2018-12-22T01:38:20.021Z,21.28
2018-12-22T01:40:47.489Z,21.28
2018-12-22T01:43:15.238Z,21.28
2018-12-22T01:45:42.902Z,21.29
2018-12-22T01:48:11.495Z,21.27
2018-12-22T01:50:39.052Z,21.26
2018-12-22T01:53:06.606Z,21.26
2018-12-22T01:55:34.348Z,21.28
2018-12-22T01:58:01.930Z,21.28
2018-12-22T02:00:29.452Z,21.28
2018-12-22T02:02:57.151Z,21.27
2018-12-22T02:05:24.795Z,21.27
2018-12-22T02:07:52.453Z,21.25
2018-12-22T02:10:20.094Z,21.26
2018-12-22T02:12:47.812Z,21.24
2018-12-22T02:15:15.461Z,21.24
2018-12-22T02:17:43.210Z,21.24
2018-12-22T02:20:10.891Z,21.23
2018-12-22T02:22:38.430Z,21.24
2018-12-22T02:25:06.028Z,21.26
2018-12-22T02:27:33.764Z,21.24
2018-12-22T02:30:01.413Z,21.23
2018-12-22T02:32:28.871Z,21.24
2018-12-22T02:34:56.571Z,21.24
2018-12-22T02:37:24.404Z,21.23
2018-12-22T02:39:52.063Z,21.21
2018-12-22T02:42:19.645Z,21.23
2018-12-22T02:44:47.197Z,21.21
2018-12-22T02:47:14.822Z,21.22
2018-12-22T02:49:42.465Z,21.21
2018-12-22T02:52:10.192Z,21.20
2018-12-22T02:54:37.750Z,21.18
2018-12-22T02:57:05.288Z,21.19
2018-12-22T02:59:32.965Z,21.20
2018-12-22T03:02:00.586Z,21.18
2018-12-22T03:04:28.111Z,21.19
2018-12-22T03:06:55.732Z,21.16
2018-12-22T03:09:23.285Z,21.17
2018-12-22T03:11:50.927Z,21.15
2018-12-22T03:14:18.510Z,21.16
2018-12-22T03:16:46.133Z,21.15
2018-12-22T03:19:13.960Z,21.15
2018-12-22T03:21:41.622Z,21.17
2018-12-22T03:24:09.145Z,21.15
2018-12-22T03:26:36.828Z,21.13
2018-12-22T03:29:04.504Z,21.14
2018-12-22T03:31:32.148Z,21.14
2018-12-22T03:33:59.693Z,21.12
2018-12-22T03:36:27.344Z,21.13
2018-12-22T03:38:54.950Z,21.12
2018-12-22T03:41:22.566Z,21.12
2018-12-22T03:43:50.156Z,21.11
2018-12-22T03:46:17.932Z,21.10
2018-12-22T03:48:45.351Z,21.09
2018-12-22T03:51:13.013Z,21.09
2018-12-22T03:53:40.668Z,21.09
2018-12-22T03:56:08.264Z,21.08
2018-12-22T03:58:35.896Z,21.07
2018-12-22T04:01:03.561Z,21.07
2018-12-22T04:03:31.009Z,21.08
2018-12-22T19:23:09.956Z,12.20
2018-12-22T19:25:37.618Z,10.87
2018-12-22T19:28:05.562Z,10.62
2018-12-22T19:30:33.008Z,10.34
2018-12-22T19:33:00.927Z,10.37
2018-12-22T19:35:28.441Z,10.30
2018-12-22T19:37:56.431Z,10.15
2018-12-22T19:40:24.011Z,10.11
2018-12-22T19:42:52.880Z,9.94
2018-12-22T19:45:20.331Z,9.95
2018-12-22T19:47:48.582Z,9.98
2018-12-22T19:50:16.610Z,9.98
2018-12-22T19:52:44.871Z,9.94
2018-12-22T19:55:12.296Z,10.00
2018-12-22T19:57:39.836Z,9.94
2018-12-22T20:00:08.588Z,9.93
2018-12-22T20:02:36.289Z,9.99
2018-12-22T20:05:05.043Z,10.01
2018-12-22T20:07:32.586Z,9.98
2018-12-22T20:10:00.649Z,9.89
2018-12-22T20:12:28.153Z,9.92
2018-12-22T20:14:56.220Z,9.90
2018-12-22T20:17:23.741Z,9.93
2018-12-22T20:19:51.825Z,10.04
2018-12-22T20:22:19.369Z,10.03
2018-12-22T20:24:47.488Z,10.02
2018-12-22T20:27:15.336Z,9.98
2018-12-22T20:29:42.837Z,10.07
2018-12-22T20:32:10.958Z,10.05
2018-12-22T20:34:38.503Z,10.13
2018-12-22T20:37:06.503Z,10.17
2018-12-22T20:39:34.025Z,10.11
2018-12-22T20:42:02.128Z,10.15
2018-12-22T20:44:29.679Z,10.08
2018-12-22T20:46:57.801Z,10.06
2018-12-22T20:49:26.479Z,10.01
2018-12-22T20:51:54.960Z,9.98
2018-12-22T20:54:23.447Z,10.09
2018-12-22T20:56:52.148Z,10.07
2018-12-22T20:59:19.710Z,10.03
2018-12-22T21:01:47.940Z,10.01
2018-12-22T21:04:19.828Z,9.94
2018-12-22T21:06:45.634Z,9.97
2018-12-22T21:09:13.655Z,9.97
2018-12-22T21:11:41.197Z,9.95
2018-12-22T21:14:09.283Z,10.01
2018-12-22T21:16:36.845Z,9.86
2018-12-22T21:19:04.829Z,9.84
2018-12-22T21:21:32.332Z,9.84
2018-12-22T21:24:00.512Z,9.86
2018-12-22T21:26:28.673Z,9.77
2018-12-22T21:28:56.805Z,9.72
2018-12-22T21:31:24.560Z,9.69
2018-12-22T21:33:52.628Z,9.68
2018-12-22T21:36:22.118Z,9.59
2018-12-22T21:38:50.476Z,9.59
2018-12-22T21:41:18.218Z,9.54
2018-12-22T21:43:45.850Z,9.60
2018-12-22T21:46:14.015Z,9.56
2018-12-22T21:48:41.748Z,9.53
2018-12-22T21:51:09.401Z,9.57
2018-12-22T21:53:37.554Z,9.48
2018-12-22T21:56:05.955Z,9.40
2018-12-22T21:58:33.452Z,9.48
2018-12-22T22:01:01.662Z,9.55
2018-12-22T22:03:29.493Z,9.49
2018-12-22T22:05:57.692Z,9.52
2018-12-22T22:08:25.582Z,9.59
2018-12-22T22:10:53.707Z,9.43
2018-12-22T22:13:22.248Z,9.57
2018-12-22T22:15:49.915Z,9.41
2018-12-22T22:18:18.012Z,9.44
2018-12-22T22:20:45.693Z,9.43
2018-12-22T22:23:18.808Z,9.47
2018-12-22T22:25:43.222Z,9.48
2018-12-22T22:28:11.023Z,9.43
2018-12-22T22:30:38.752Z,9.52
2018-12-22T22:33:06.266Z,9.46
2018-12-22T22:35:35.511Z,9.40
2018-12-22T22:38:03.479Z,9.38
2018-12-22T22:40:31.412Z,9.39
2018-12-22T22:42:58.965Z,9.37
2018-12-22T22:45:27.659Z,9.37
2018-12-22T22:47:55.163Z,9.47
2018-12-22T22:50:23.226Z,9.53
2018-12-22T22:52:50.688Z,9.49
2018-12-22T22:55:18.728Z,9.43
2018-12-22T22:57:46.412Z,9.51
2018-12-22T23:00:18.071Z,9.48
2018-12-22T23:02:45.782Z,9.51
2018-12-22T23:05:13.351Z,9.49
2018-12-22T23:07:41.003Z,9.52
2018-12-22T23:10:09.283Z,9.54
2018-12-22T23:12:36.824Z,9.52
2018-12-22T23:15:05.376Z,9.56
2018-12-22T23:17:33.013Z,9.54
2018-12-22T23:20:00.630Z,9.59
2018-12-22T23:22:28.165Z,9.64
2018-12-22T23:24:56.275Z,9.64
2018-12-22T23:27:23.906Z,9.63
2018-12-22T23:29:51.422Z,9.70
2018-12-22T23:32:18.969Z,9.69
2018-12-22T23:34:46.419Z,9.71
2018-12-22T23:37:13.885Z,9.76
2018-12-22T23:39:41.425Z,9.70
2018-12-22T23:42:09.141Z,9.74
2018-12-22T23:44:36.645Z,9.70
2018-12-22T23:47:04.246Z,9.71
2018-12-22T23:49:31.783Z,9.68
2018-12-22T23:51:59.425Z,9.67
2018-12-22T23:54:27.146Z,9.73
2018-12-22T23:56:54.534Z,9.69
2018-12-22T23:59:22.210Z,9.70
